createdAt,value
2018-06-20T00:02:17.714Z,7.23
2018-06-20T00:05:21.262Z,8.63
2018-06-20T00:07:59.495Z,8.30
2018-06-20T00:10:45.897Z,10.43
2018-06-20T00:13:55.560Z,7.43
2018-06-20T00:21:23.383Z,11.20
2018-06-20T00:24:31.107Z,11.97
2018-06-20T00:27:09.746Z,8.70
2018-06-20T00:30:14.187Z,9.80
2018-06-20T00:33:12.387Z,10.07
2018-06-20T00:35:54.579Z,13.00
2018-06-20T00:38:35.970Z,8.57
2018-06-20T00:41:09.738Z,14.47
2018-06-20T00:43:43.940Z,9.70
2018-06-20T00:46:18.052Z,8.63
2018-06-20T00:48:53.252Z,7.93
2018-06-20T00:51:28.386Z,10.87
2018-06-20T00:54:03.599Z,12.40
2018-06-20T00:56:37.773Z,7.53
2018-06-20T00:59:11.952Z,11.13
2018-06-20T01:01:47.089Z,8.47
2018-06-20T01:04:21.272Z,11.13
2018-06-20T01:06:56.480Z,12.67
2018-06-20T01:09:30.615Z,8.40
2018-06-20T01:12:04.823Z,14.00
2018-06-20T01:14:39.014Z,14.23
2018-06-20T01:17:13.173Z,9.57
2018-06-20T01:19:46.865Z,15.10
2018-06-20T01:22:21.010Z,11.53
2018-06-20T01:24:55.200Z,11.67
2018-06-20T01:27:29.343Z,11.87
2018-06-20T01:30:03.543Z,12.07
2018-06-20T01:32:37.688Z,10.87
2018-06-20T01:35:12.861Z,8.70
2018-06-20T01:37:48.064Z,15.23
2018-06-20T01:40:22.280Z,10.13
2018-06-20T01:42:56.402Z,7.57
2018-06-20T01:45:30.604Z,12.63
2018-06-20T01:48:04.792Z,11.33
2018-06-20T01:50:39.983Z,14.33
2018-06-20T01:53:14.142Z,10.37
2018-06-20T01:55:48.345Z,11.03
2018-06-20T01:58:23.206Z,9.63
2018-06-20T02:00:57.424Z,14.20
2018-06-20T02:03:32.636Z,14.43
2018-06-20T02:06:07.858Z,9.80
2018-06-20T02:08:42.032Z,9.10
2018-06-20T02:11:16.185Z,9.93
2018-06-20T02:13:50.375Z,15.60
2018-06-20T02:16:24.552Z,15.07
2018-06-20T02:18:58.675Z,11.40
2018-06-20T02:21:32.870Z,14.53
2018-06-20T02:24:06.508Z,13.50
2018-06-20T02:26:41.709Z,16.00
2018-06-20T02:29:15.888Z,22.77
2018-06-20T02:31:50.116Z,13.10
2018-06-20T02:34:24.305Z,14.97
2018-06-20T02:36:58.492Z,14.30
2018-06-20T02:39:32.628Z,11.80
2018-06-20T02:42:06.312Z,10.27
2018-06-20T02:44:40.517Z,14.53
2018-06-20T02:47:14.765Z,12.30
2018-06-20T02:49:49.919Z,13.07
2018-06-20T02:52:24.196Z,13.50
2018-06-20T02:54:58.722Z,13.33
2018-06-20T02:57:33.458Z,10.33
2018-06-20T03:00:07.158Z,12.53
2018-06-20T03:03:02.626Z,20.03
2018-06-20T03:05:52.512Z,18.10
2018-06-20T03:08:26.774Z,13.70
2018-06-20T03:11:00.891Z,16.23
2018-06-20T03:13:35.060Z,13.13
2018-06-20T03:16:09.163Z,13.07
2018-06-20T03:18:43.375Z,17.50
2018-06-20T03:21:17.494Z,15.73
2018-06-20T03:23:51.660Z,9.77
2018-06-20T03:26:25.776Z,10.70
2018-06-20T03:29:00.000Z,13.43
2018-06-20T03:31:34.147Z,7.83
2018-06-20T03:34:08.324Z,7.77
2018-06-20T03:36:43.062Z,8.40
2018-06-20T03:39:17.830Z,14.03
2018-06-20T03:41:52.518Z,12.05
2018-06-20T03:44:26.771Z,6.65
2018-06-20T03:47:05.992Z,9.43
2018-06-20T03:49:49.071Z,10.30
2018-06-20T03:52:23.875Z,11.10
2018-06-20T03:54:58.799Z,11.00
2018-06-20T03:57:33.476Z,7.97
2018-06-20T04:00:07.806Z,10.85
2018-06-20T04:02:44.145Z,8.80
2018-06-20T04:05:18.920Z,9.35
2018-06-20T04:07:53.644Z,7.90
2018-06-20T04:10:28.370Z,7.12
2018-06-20T04:13:03.040Z,8.95
2018-06-20T04:15:37.851Z,8.43
2018-06-20T04:18:12.519Z,10.18
2018-06-20T04:20:47.243Z,8.78
2018-06-20T04:23:21.934Z,8.28
2018-06-20T04:25:56.701Z,9.30
2018-06-20T04:28:31.421Z,5.95
2018-06-20T04:31:06.916Z,7.83
2018-06-20T04:33:41.626Z,9.43
2018-06-20T04:36:17.404Z,9.75
2018-06-20T04:38:52.136Z,6.97
2018-06-20T04:41:26.863Z,11.83
2018-06-20T04:44:01.571Z,10.25
2018-06-20T04:46:36.339Z,8.03
2018-06-20T04:49:11.007Z,9.83
2018-06-20T04:51:45.740Z,9.48
2018-06-20T04:54:20.580Z,8.83
2018-06-20T04:57:00.928Z,7.20
2018-06-20T04:59:45.192Z,12.68
2018-06-20T05:02:33.290Z,7.55
2018-06-20T05:05:08.039Z,9.75
2018-06-20T05:07:42.762Z,7.90
2018-06-20T05:10:17.450Z,10.98
2018-06-20T05:12:52.182Z,9.68
2018-06-20T05:15:26.524Z,9.10
2018-06-20T05:18:01.291Z,12.65
2018-06-20T05:20:37.010Z,12.45
2018-06-20T05:23:11.761Z,8.95
2018-06-20T05:25:46.478Z,5.78
2018-06-20T05:28:21.236Z,9.30
2018-06-20T05:30:56.456Z,7.70
2018-06-20T05:33:31.221Z,11.43
2018-06-20T05:36:26.940Z,8.88
2018-06-20T05:39:05.653Z,8.30
2018-06-20T05:41:40.493Z,13.50
2018-06-20T05:44:19.264Z,9.10
2018-06-20T05:46:54.960Z,9.50
2018-06-20T05:49:34.664Z,8.83
2018-06-20T05:52:11.559Z,8.90
2018-06-20T05:54:46.331Z,6.33
2018-06-20T05:57:21.024Z,9.48
2018-06-20T05:59:55.818Z,9.50
2018-06-20T06:02:30.515Z,5.33
2018-06-20T06:05:06.583Z,4.83
2018-06-20T06:07:41.452Z,9.53
2018-06-20T06:10:16.763Z,7.42
2018-06-20T06:12:51.464Z,9.15
2018-06-20T06:15:26.226Z,8.80
2018-06-20T06:18:00.429Z,8.50
2018-06-20T06:20:35.223Z,12.40
2018-06-20T06:23:09.928Z,7.65
2018-06-20T06:25:45.681Z,11.18
2018-06-20T06:28:20.478Z,8.13
2018-06-20T06:30:55.268Z,6.87
2018-06-20T06:33:29.964Z,8.93
2018-06-20T06:36:04.717Z,10.48
2018-06-20T06:38:39.471Z,5.47
2018-06-20T06:41:14.210Z,7.08
2018-06-20T06:43:49.983Z,8.95
2018-06-20T06:46:25.676Z,14.35
2018-06-20T06:49:00.433Z,11.10
2018-06-20T06:55:19.489Z,9.28
2018-06-20T06:58:09.027Z,8.33
2018-06-20T07:14:59.363Z,7.22
2018-06-20T07:17:35.895Z,7.33
2018-06-20T07:20:10.676Z,6.37
2018-06-20T07:22:45.400Z,5.53
2018-06-20T07:25:20.109Z,10.43
2018-06-20T07:27:54.349Z,4.67
2018-06-20T07:30:29.094Z,7.75
2018-06-20T07:33:03.887Z,6.15
2018-06-20T07:35:38.717Z,6.97
2018-06-20T07:38:13.499Z,6.08
2018-06-20T07:40:48.182Z,7.30
2018-06-20T07:43:22.915Z,6.28
2018-06-20T07:45:57.622Z,8.43
2018-06-20T07:48:32.392Z,8.38
2018-06-20T07:51:07.123Z,7.20
2018-06-20T07:53:41.891Z,5.90
2018-06-20T07:56:19.296Z,8.30
2018-06-20T07:58:56.931Z,8.25
2018-06-20T08:01:47.870Z,6.33
2018-06-20T08:04:27.761Z,9.33
2018-06-20T08:07:07.544Z,6.95
2018-06-20T08:09:47.475Z,8.90
2018-06-20T08:12:27.259Z,9.55
2018-06-20T08:15:07.394Z,6.45
2018-06-20T08:17:47.513Z,7.62
2018-06-20T08:20:25.148Z,8.80
2018-06-20T08:22:59.863Z,5.85
2018-06-20T08:25:34.620Z,7.83
2018-06-20T08:28:08.823Z,5.35
2018-06-20T08:30:43.089Z,6.72
2018-06-20T08:33:17.783Z,6.40
2018-06-20T08:35:52.523Z,6.03
2018-06-20T08:38:28.262Z,8.83
2018-06-20T08:41:02.995Z,6.15
2018-06-20T08:43:37.704Z,4.95
2018-06-20T08:46:12.437Z,4.95
2018-06-20T08:48:47.150Z,4.97
2018-06-20T08:51:21.404Z,4.72
2018-06-20T08:53:56.094Z,4.83
2018-06-20T08:56:30.846Z,4.83
2018-06-20T08:59:06.615Z,5.97
2018-06-20T09:01:41.331Z,4.15
2018-06-20T09:04:21.233Z,5.10
2018-06-20T09:07:00.725Z,8.00
2018-06-20T09:09:41.624Z,4.85
2018-06-20T09:12:21.535Z,3.42
2018-06-20T09:15:01.372Z,4.90
2018-06-20T09:17:41.285Z,3.75
2018-06-20T09:20:16.529Z,3.83
2018-06-20T09:22:50.795Z,5.78
2018-06-20T09:25:25.483Z,4.45
2018-06-20T09:28:01.448Z,3.40
2018-06-20T09:30:36.148Z,6.35
2018-06-20T09:33:10.414Z,2.20
2018-06-20T09:35:45.141Z,2.33
2018-06-20T09:38:20.883Z,5.12
2018-06-20T09:40:55.566Z,5.45
2018-06-20T09:43:31.268Z,5.70
2018-06-20T09:46:07.007Z,2.85
2018-06-20T09:48:41.787Z,4.97
2018-06-20T09:51:16.023Z,4.00
2018-06-20T09:53:50.768Z,4.22
2018-06-20T09:56:25.484Z,3.37
2018-06-20T09:59:06.521Z,6.87
2018-06-20T10:01:45.985Z,4.50
2018-06-20T10:04:25.795Z,4.62
2018-06-20T10:08:06.395Z,3.20
2018-06-20T10:10:46.321Z,3.77
2018-06-20T10:13:24.519Z,3.50
2018-06-20T10:15:59.265Z,3.08
2018-06-20T10:18:34.027Z,4.08
2018-06-20T10:21:09.799Z,4.70
2018-06-20T10:23:44.704Z,4.62
2018-06-20T10:26:19.427Z,3.08
2018-06-20T10:28:54.121Z,4.37
2018-06-20T10:31:28.369Z,4.78
2018-06-20T10:34:04.075Z,3.77
2018-06-20T10:36:39.814Z,3.20
2018-06-20T10:39:15.551Z,2.98
2018-06-20T10:41:50.293Z,3.17
2018-06-20T10:44:25.011Z,4.10
2018-06-20T10:47:06.024Z,4.25
2018-06-20T10:49:40.744Z,2.85
2018-06-20T10:52:15.843Z,2.33
2018-06-20T10:54:50.575Z,1.95
2018-06-20T10:57:30.384Z,8.18
2018-06-20T11:00:10.251Z,4.60
2018-06-20T11:02:50.256Z,8.25
2018-06-20T11:05:30.158Z,3.80
2018-06-20T11:08:10.131Z,4.37
2018-06-20T11:11:49.479Z,2.65
2018-06-20T11:14:24.229Z,4.25
2018-06-20T11:16:58.989Z,3.75
2018-06-20T11:19:33.767Z,2.42
2018-06-20T11:22:08.504Z,4.28
2018-06-20T11:24:43.256Z,3.05
2018-06-20T11:27:17.978Z,4.10
2018-06-20T11:29:52.737Z,3.70
2018-06-20T11:32:28.548Z,4.40
2018-06-20T11:35:04.367Z,4.45
2018-06-20T11:37:40.093Z,6.37
2018-06-20T11:40:14.874Z,5.05
2018-06-20T11:42:50.584Z,4.08
2018-06-20T11:45:29.429Z,6.05
2018-06-20T11:48:04.136Z,4.83
2018-06-20T11:50:38.961Z,4.78
2018-06-20T11:53:13.836Z,6.75
2018-06-20T11:55:48.618Z,5.12
2018-06-20T11:58:28.390Z,6.03
2018-06-20T12:01:09.242Z,7.17
2018-06-20T12:03:49.624Z,4.97
2018-06-20T12:06:29.835Z,5.25
2018-06-20T12:09:09.193Z,4.70
2018-06-20T12:11:49.123Z,6.62
2018-06-20T12:14:28.696Z,5.70
2018-06-20T12:17:02.564Z,4.75
2018-06-20T12:19:42.100Z,5.10
2018-06-20T12:22:21.705Z,4.70
2018-06-20T12:25:01.492Z,7.25
2018-06-20T12:27:42.458Z,6.45
2018-06-20T12:30:22.427Z,5.75
2018-06-20T12:33:03.499Z,5.35
2018-06-20T12:35:43.956Z,7.87
2018-06-20T12:38:23.728Z,6.95
2018-06-20T12:42:03.257Z,8.68
2018-06-20T12:44:42.998Z,7.47
2018-06-20T12:47:27.218Z,5.60
2018-06-20T12:50:03.694Z,6.62
2018-06-20T12:52:38.007Z,5.37
2018-06-20T12:55:13.876Z,5.05
2018-06-20T12:57:49.643Z,7.67
2018-06-20T13:00:24.336Z,5.30
2018-06-20T13:02:59.597Z,7.55
2018-06-20T13:05:34.402Z,7.95
2018-06-20T13:08:09.224Z,5.65
2018-06-20T13:10:43.607Z,5.15
2018-06-20T13:13:18.527Z,6.65
2018-06-20T13:15:53.255Z,5.97
2018-06-20T13:18:27.997Z,7.33
2018-06-20T13:21:02.669Z,6.67
2018-06-20T13:23:38.123Z,8.60
2018-06-20T13:26:12.803Z,5.80
2018-06-20T13:28:47.547Z,7.50
2018-06-20T13:31:27.548Z,6.50
2018-06-20T13:34:07.125Z,8.07
2018-06-20T13:36:48.067Z,7.72
2018-06-20T13:39:27.980Z,10.32
2018-06-20T13:42:07.675Z,10.25
2018-06-20T13:44:43.419Z,9.43
2018-06-20T13:47:23.261Z,8.80
2018-06-20T13:49:58.896Z,9.13
2018-06-20T13:52:33.666Z,10.58
2018-06-20T13:58:12.185Z,10.28
2018-06-20T14:00:46.972Z,11.10
2018-06-20T14:03:21.667Z,10.38
2018-06-20T14:05:55.921Z,10.08
2018-06-20T14:08:30.665Z,10.45
2018-06-20T14:11:05.442Z,13.22
2018-06-20T14:13:40.188Z,11.30
2018-06-20T14:16:14.911Z,6.62
2018-06-20T14:18:50.734Z,8.33
2018-06-20T14:21:30.760Z,9.28
2018-06-20T14:24:08.096Z,8.70
2018-06-20T14:26:42.826Z,8.78
2018-06-20T14:29:17.240Z,7.07
2018-06-20T14:31:57.231Z,8.43
2018-06-20T14:34:37.031Z,8.20
2018-06-20T14:38:17.398Z,7.08
2018-06-20T14:40:58.007Z,8.10
2018-06-20T14:43:38.038Z,7.95
2018-06-20T14:46:16.887Z,9.78
2018-06-20T14:48:52.676Z,8.23
2018-06-20T14:51:27.412Z,6.83
2018-06-20T14:54:02.159Z,9.28
2018-06-20T14:56:36.903Z,10.68
2018-06-20T14:59:12.638Z,9.18
2018-06-20T15:01:48.412Z,8.43
2018-06-20T15:04:24.337Z,7.70
2018-06-20T15:06:59.219Z,9.20
2018-06-20T15:09:33.818Z,8.00
2018-06-20T15:12:08.572Z,8.53
2018-06-20T15:14:42.765Z,9.35
2018-06-20T15:17:22.760Z,8.65
2018-06-20T15:19:57.686Z,9.58
2018-06-20T15:22:37.592Z,9.25
2018-06-20T15:25:12.300Z,8.58
2018-06-20T15:27:52.246Z,9.38
2018-06-20T15:30:33.678Z,10.05
2018-06-20T15:33:25.864Z,8.48
2018-06-20T15:37:05.596Z,8.73
2018-06-20T15:39:40.288Z,9.50
2018-06-20T15:42:15.041Z,9.58
2018-06-20T15:44:49.744Z,8.13
2018-06-20T15:47:24.499Z,8.75
2018-06-20T15:49:59.178Z,8.43
2018-06-20T15:52:33.925Z,11.40
2018-06-20T15:55:09.690Z,8.80
2018-06-20T15:57:44.595Z,9.95
2018-06-20T16:00:19.367Z,9.78
2018-06-20T16:02:55.458Z,10.08
2018-06-20T16:05:31.707Z,11.08
2018-06-20T16:08:07.499Z,9.20
2018-06-20T16:10:42.776Z,8.33
2018-06-20T16:13:17.519Z,9.40
2018-06-20T16:15:52.252Z,13.08
2018-06-20T16:18:27.107Z,10.93
2018-06-20T16:21:07.141Z,13.65
2018-06-20T16:24:45.659Z,11.53
2018-06-20T16:27:25.664Z,11.75
2018-06-20T16:30:05.592Z,12.40
2018-06-20T16:32:40.357Z,13.58
2018-06-20T16:35:15.075Z,14.65
2018-06-20T16:37:49.916Z,13.70
2018-06-20T16:40:26.056Z,12.68
2018-06-20T16:43:00.997Z,10.78
2018-06-20T16:45:35.799Z,11.65
2018-06-20T16:48:10.551Z,13.43
2018-06-20T16:50:45.299Z,12.88
2018-06-20T16:53:20.077Z,10.50
2018-06-20T16:55:54.878Z,10.30
2018-06-20T16:58:29.601Z,10.70
2018-06-20T17:01:09.130Z,11.33
2018-06-20T17:03:43.386Z,15.28
2018-06-20T17:06:18.129Z,13.55
2018-06-20T17:08:52.965Z,11.33
2018-06-20T17:11:27.848Z,10.03
2018-06-20T17:14:07.966Z,14.35
2018-06-20T17:16:47.852Z,11.55
2018-06-20T17:19:27.684Z,10.78
2018-06-20T17:23:08.926Z,13.43
2018-06-20T17:25:44.435Z,9.15
2018-06-20T17:28:20.452Z,10.82
2018-06-20T17:30:56.265Z,13.75
2018-06-20T17:33:34.026Z,10.48
2018-06-20T17:36:15.138Z,10.75
2018-06-20T17:38:53.840Z,11.45
2018-06-20T17:41:32.858Z,12.07
2018-06-20T17:44:17.766Z,14.93
2018-06-20T17:46:58.910Z,13.43
2018-06-20T17:49:33.633Z,13.03
2018-06-20T17:52:09.195Z,11.18
2018-06-20T17:54:44.541Z,11.20
2018-06-20T17:57:19.648Z,14.98
2018-06-20T17:59:57.535Z,10.72
2018-06-20T18:02:32.327Z,12.23
2018-06-20T18:05:12.148Z,11.68
2018-06-20T18:07:51.983Z,10.03
2018-06-20T18:10:32.033Z,12.30
2018-06-20T18:13:06.792Z,11.97
2018-06-20T18:15:46.716Z,11.22
2018-06-20T18:18:21.498Z,11.40
2018-06-20T18:20:55.718Z,13.00
2018-06-20T18:23:36.605Z,10.25
2018-06-20T18:26:15.232Z,10.10
2018-06-20T18:28:51.510Z,10.20
2018-06-20T18:31:37.443Z,11.78
2018-06-20T18:34:20.069Z,12.05
2018-06-20T18:36:55.742Z,11.60
2018-06-20T18:39:38.670Z,11.78
2018-06-20T18:42:14.675Z,9.85
2018-06-20T18:48:08.435Z,9.95
2018-06-20T18:50:52.924Z,10.68
2018-06-20T18:53:42.321Z,12.53
2018-06-20T19:02:49.321Z,12.05
2018-06-20T19:05:31.815Z,10.32
2018-06-20T19:08:11.907Z,11.78
2018-06-20T19:10:46.684Z,11.03
2018-06-20T19:13:21.001Z,12.07
2018-06-20T19:15:55.945Z,11.85
2018-06-20T19:18:30.179Z,12.00
2018-06-20T19:21:05.020Z,13.85
2018-06-20T19:23:39.771Z,12.73
2018-06-20T19:26:15.589Z,15.83
2018-06-20T19:28:51.388Z,11.93
2018-06-20T19:31:26.137Z,12.53
2018-06-20T19:34:00.384Z,11.65
2018-06-20T19:36:35.152Z,11.18
2018-06-20T19:39:15.112Z,12.95
2018-06-20T19:41:50.045Z,12.88
2018-06-20T19:44:30.124Z,13.78
2018-06-20T19:47:06.171Z,12.10
2018-06-20T19:49:40.390Z,10.90
2018-06-20T19:52:14.638Z,12.25
2018-06-20T19:54:49.368Z,12.63
2018-06-20T19:57:25.168Z,13.60
2018-06-20T19:59:59.896Z,13.55
2018-06-20T20:02:34.211Z,15.48
2018-06-20T20:05:09.109Z,13.50
2018-06-20T20:07:43.888Z,13.15
2018-06-20T20:10:19.680Z,14.75
2018-06-20T20:12:54.470Z,14.65
2018-06-20T20:15:29.375Z,13.80
2018-06-20T20:18:04.131Z,13.30
2018-06-20T20:20:38.850Z,13.70
2018-06-20T20:23:13.626Z,15.63
2018-06-20T20:25:48.388Z,14.53
2018-06-20T20:28:22.629Z,16.42
2018-06-20T20:30:57.363Z,16.25
2018-06-20T20:33:32.124Z,16.42
2018-06-20T20:36:06.862Z,16.48
2018-06-20T20:38:41.609Z,25.45
2018-06-20T20:41:15.921Z,22.02
2018-06-20T20:43:50.675Z,22.80
2018-06-20T20:46:25.386Z,25.17
2018-06-20T20:49:01.230Z,25.77
2018-06-20T20:51:35.501Z,24.35
2018-06-20T20:54:10.244Z,23.90
2018-06-20T20:56:54.432Z,23.55
2018-06-20T20:59:29.167Z,22.20
2018-06-20T21:02:03.952Z,26.02
2018-06-20T21:04:39.127Z,23.90
2018-06-20T21:07:13.835Z,22.87
2018-06-20T21:09:48.102Z,23.25
2018-06-20T21:12:23.945Z,23.25
2018-06-20T21:15:06.861Z,25.92
2018-06-20T21:17:43.294Z,22.50
2018-06-20T21:20:18.053Z,25.50
2018-06-20T21:22:52.734Z,26.95
2018-06-20T21:25:27.009Z,25.25
2018-06-20T21:28:02.740Z,27.13
2018-06-20T21:30:37.504Z,28.35
2018-06-20T21:33:12.195Z,26.02
2018-06-20T21:35:46.968Z,25.23
2018-06-20T21:38:21.202Z,31.15
2018-06-20T21:40:56.000Z,28.15
2018-06-20T21:43:30.689Z,27.77
2018-06-20T21:46:05.563Z,29.40
2018-06-20T21:48:39.792Z,31.40
2018-06-20T21:51:14.748Z,34.60
2018-06-20T21:53:50.508Z,28.65
2018-06-20T21:56:25.260Z,33.33
2018-06-20T21:59:00.008Z,33.00
2018-06-20T22:01:34.812Z,31.82
2018-06-20T22:04:09.699Z,30.52
2018-06-20T22:06:44.460Z,33.40
2018-06-20T22:09:19.190Z,33.30
2018-06-20T22:11:53.954Z,34.25
2018-06-20T22:14:28.174Z,31.55
2018-06-20T22:17:02.417Z,30.05
2018-06-20T22:19:38.294Z,31.20
2018-06-20T22:22:13.052Z,31.55
2018-06-20T22:24:47.785Z,35.95
2018-06-20T22:27:22.206Z,30.68
2018-06-20T22:29:57.513Z,32.33
2018-06-20T22:32:32.284Z,30.25
2018-06-20T22:35:06.992Z,30.25
2018-06-20T22:37:41.714Z,30.48
2018-06-20T22:40:16.522Z,33.35
2018-06-20T22:42:51.300Z,28.83
2018-06-20T22:45:26.010Z,30.77
2018-06-20T22:48:01.292Z,29.02
2018-06-20T22:50:36.010Z,31.48
2018-06-20T22:53:10.795Z,34.98
2018-06-20T22:55:45.491Z,37.78
2018-06-20T22:58:20.202Z,37.15
2018-06-20T23:00:55.924Z,38.78
2018-06-20T23:03:30.663Z,36.83
2018-06-20T23:06:06.473Z,38.35
2018-06-20T23:08:40.748Z,38.25
2018-06-20T23:11:19.147Z,43.25
2018-06-20T23:13:53.867Z,45.63
2018-06-20T23:16:28.576Z,41.95
2018-06-20T23:19:03.391Z,43.60
2018-06-20T23:21:38.215Z,48.52
2018-06-20T23:24:13.024Z,46.10
2018-06-20T23:26:48.757Z,45.58
2018-06-20T23:29:23.502Z,42.60
2018-06-20T23:31:58.240Z,43.23
2018-06-20T23:34:33.032Z,39.73
2018-06-20T23:37:07.777Z,43.45
2018-06-20T23:39:42.556Z,39.53
2018-06-20T23:42:17.264Z,47.60
2018-06-20T23:44:52.020Z,47.60
2018-06-20T23:47:26.716Z,46.55
2018-06-20T23:50:01.459Z,51.88
2018-06-20T23:52:36.143Z,49.60
2018-06-20T23:55:18.454Z,49.50
2018-06-20T23:57:53.638Z,55.73
